Time;durP1;ratioP1;P1;durP2;ratioP2;P2;SDS_P1;SDS_P2;PMS_P1;PMS_P2;Temp;Humidity;BMP_temperature;BMP_pressure;BME280_temperature;BME280_humidity;BME280_pressure;Samples;Min_cycle;Max_cycle;Signal;HPM_P1;HPM_P2
2022/04/10 00:01:38;;;;;;;3.73;1.43;;;6.40;93.60;;;;;;5097181;28;20174;-75
2022/04/10 00:04:05;;;;;;;4.17;1.60;;;6.40;93.80;;;;;;5115603;28;20159;-75
2022/04/10 00:06:30;;;;;;;3.55;2.13;;;6.40;93.90;;;;;;5115507;28;20920;-75
2022/04/10 00:08:57;;;;;;;4.03;1.40;;;6.40;94.00;;;;;;5115285;28;20187;-75
2022/04/10 00:11:22;;;;;;;1.83;1.30;;;6.40;94.00;;;;;;5097250;28;20251;-75
2022/04/10 00:13:48;;;;;;;4.50;1.60;;;6.40;94.00;;;;;;5115329;28;20208;-75
2022/04/10 00:16:14;;;;;;;4.23;1.70;;;6.40;94.10;;;;;;5115250;28;20649;-75
2022/04/10 00:18:40;;;;;;;2.13;1.70;;;6.40;94.10;;;;;;5096615;28;20213;-75
2022/04/10 00:21:07;;;;;;;3.10;2.13;;;6.40;94.20;;;;;;5097092;28;20572;-76
2022/04/10 00:23:33;;;;;;;3.90;2.15;;;6.40;94.30;;;;;;5115093;28;20187;-75
2022/04/10 00:26:00;;;;;;;3.77;1.77;;;6.30;94.20;;;;;;5115232;28;20564;-76
2022/04/10 00:28:25;;;;;;;5.55;2.67;;;6.30;94.30;;;;;;5079695;28;20609;-75
2022/04/10 00:30:51;;;;;;;3.73;1.93;;;6.20;94.40;;;;;;5096776;28;20174;-75
2022/04/10 00:33:17;;;;;;;3.37;2.43;;;6.20;94.50;;;;;;5096870;28;20568;-75
2022/04/10 00:35:43;;;;;;;4.03;2.40;;;6.20;94.60;;;;;;5115045;28;20155;-75
2022/04/10 00:38:08;;;;;;;2.80;1.70;;;6.20;94.80;;;;;;5079300;28;20684;-75
2022/04/10 00:40:34;;;;;;;2.73;1.67;;;6.10;94.80;;;;;;5114730;28;20202;-75
2022/04/10 00:43:00;;;;;;;3.30;2.13;;;6.10;94.90;;;;;;5096713;28;20548;-75
2022/04/10 00:45:26;;;;;;;4.38;1.70;;;6.00;94.90;;;;;;5096698;28;20194;-76
2022/04/10 00:47:53;;;;;;;4.10;2.05;;;6.00;95.00;;;;;;5114415;28;20230;-76
2022/04/10 00:50:20;;;;;;;4.30;2.30;;;6.00;95.20;;;;;;5114411;28;20792;-76
2022/04/10 00:52:47;;;;;;;3.05;1.13;;;5.90;95.30;;;;;;5096410;28;20639;-76
2022/04/10 00:55:14;;;;;;;3.45;2.05;;;5.90;95.40;;;;;;5095324;28;20164;-76
2022/04/10 00:57:40;;;;;;;5.38;3.30;;;5.90;95.90;;;;;;5096233;28;20171;-76
2022/04/10 01:00:09;;;;;;;4.40;2.22;;;5.80;95.60;;;;;;5102817;28;20199;-76
2022/04/10 01:02:36;;;;;;;3.55;2.15;;;5.80;95.80;;;;;;5096216;28;20174;-75
2022/04/10 01:05:04;;;;;;;4.55;1.65;;;5.70;95.80;;;;;;5114704;28;20163;-76
2022/04/10 01:07:30;;;;;;;3.05;1.80;;;5.70;95.90;;;;;;5096012;28;20258;-76
2022/04/10 01:09:57;;;;;;;5.30;2.10;;;5.70;96.00;;;;;;5096215;28;20187;-76
2022/04/10 01:12:23;;;;;;;3.00;1.92;;;5.60;96.10;;;;;;5114376;28;20216;-76
2022/04/10 01:14:52;;;;;;;3.10;1.45;;;5.60;96.20;;;;;;5079895;28;20560;-76
2022/04/10 01:17:23;;;;;;;3.72;1.70;;;5.60;96.30;;;;;;5095957;28;20162;-76
2022/04/10 01:19:53;;;;;;;4.65;2.00;;;5.50;96.30;;;;;;5079118;28;20206;-76
2022/04/10 01:22:26;;;;;;;4.80;2.13;;;5.50;96.60;;;;;;5096045;28;20182;-76
2022/04/10 01:24:53;;;;;;;2.80;1.77;;;5.50;96.90;;;;;;5095999;28;20570;-75
2022/04/10 01:27:20;;;;;;;3.30;1.50;;;5.50;96.70;;;;;;5095760;28;20163;-76
2022/04/10 01:29:46;;;;;;;5.77;2.57;;;5.40;96.80;;;;;;5113917;28;20190;-76
2022/04/10 01:32:12;;;;;;;2.87;1.30;;;5.40;96.90;;;;;;5078982;28;20565;-76
2022/04/10 01:34:40;;;;;;;5.93;1.83;;;5.40;97.00;;;;;;5095838;28;20178;-75
2022/04/10 01:37:08;;;;;;;2.65;1.55;;;5.30;97.30;;;;;;5095457;28;20204;-76
2022/04/10 01:39:34;;;;;;;3.15;1.50;;;5.30;97.10;;;;;;5078604;28;20218;-76
2022/04/10 01:42:00;;;;;;;2.42;1.58;;;5.30;97.20;;;;;;5095589;28;20170;-75
2022/04/10 01:44:28;;;;;;;5.57;2.40;;;5.30;97.40;;;;;;5095583;28;20683;-76
2022/04/10 01:46:55;;;;;;;2.20;1.40;;;5.30;97.40;;;;;;5095589;28;20167;-76
2022/04/10 01:49:21;;;;;;;2.00;1.20;;;5.30;97.60;;;;;;5078314;28;20658;-76
2022/04/10 01:51:47;;;;;;;4.70;1.80;;;5.20;97.60;;;;;;5095475;28;20179;-76
2022/04/10 01:54:12;;;;;;;2.73;1.80;;;5.20;97.70;;;;;;5078492;28;20175;-76
2022/04/10 01:56:38;;;;;;;2.20;1.17;;;5.20;97.90;;;;;;5095356;28;20220;-76
2022/04/10 01:59:05;;;;;;;2.22;1.58;;;5.20;97.90;;;;;;5095159;28;20271;-76
2022/04/10 02:01:32;;;;;;;2.93;1.90;;;5.10;98.10;;;;;;5095181;28;20686;-76
2022/04/10 02:03:58;;;;;;;2.47;1.25;;;5.10;98.10;;;;;;5095098;28;20198;-76
2022/04/10 02:06:23;;;;;;;2.90;2.27;;;5.10;98.40;;;;;;5094823;28;20187;-76
2022/04/10 02:08:51;;;;;;;3.58;1.58;;;5.10;98.40;;;;;;5094747;28;20723;-76
2022/04/10 02:11:21;;;;;;;4.05;1.95;;;5.10;98.60;;;;;;5095019;28;20178;-76
2022/04/10 02:13:49;;;;;;;3.38;2.03;;;5.10;98.60;;;;;;5095143;28;20657;-76
2022/04/10 02:16:19;;;;;;;3.90;1.77;;;5.10;98.60;;;;;;5094960;28;20202;-76
2022/04/10 02:18:47;;;;;;;3.35;1.58;;;5.10;98.90;;;;;;5094485;28;20195;-76
2022/04/10 02:21:13;;;;;;;5.90;2.13;;;5.00;98.70;;;;;;5094600;28;20227;-76
2022/04/10 02:23:40;;;;;;;4.35;2.10;;;5.10;99.00;;;;;;5078009;28;20252;-76
2022/04/10 02:26:09;;;;;;;2.65;1.45;;;5.00;99.00;;;;;;5095042;28;20919;-76
2022/04/10 02:28:35;;;;;;;3.45;1.60;;;5.00;99.10;;;;;;5094639;28;20182;-76
2022/04/10 02:31:01;;;;;;;4.05;1.90;;;5.00;99.20;;;;;;5094639;28;20174;-77
2022/04/10 02:33:27;;;;;;;4.07;2.05;;;5.00;99.40;;;;;;5094839;28;20167;-76
2022/04/10 02:35:53;;;;;;;4.43;1.60;;;5.00;99.50;;;;;;5077722;28;20175;-76
2022/04/10 02:38:20;;;;;;;5.82;2.53;;;5.00;99.60;;;;;;5060756;28;20589;-76
2022/04/10 02:40:46;;;;;;;4.57;3.20;;;5.00;99.60;;;;;;5094347;28;20579;-76
2022/04/10 02:43:14;;;;;;;5.05;2.50;;;4.90;99.70;;;;;;5077511;28;20614;-76
2022/04/10 02:45:44;;;;;;;5.85;3.10;;;4.90;99.80;;;;;;5077516;28;20174;-76
2022/04/10 02:48:10;;;;;;;4.97;2.60;;;5.00;99.90;;;;;;5094060;28;20207;-76
2022/04/10 02:50:40;;;;;;;4.45;2.45;;;4.90;99.90;;;;;;5094351;28;20175;-76
2022/04/10 02:53:06;;;;;;;4.78;2.60;;;5.00;99.90;;;;;;5077700;28;20627;-76
2022/04/10 02:58:00;;;;;;;5.43;2.60;;;5.00;99.90;;;;;;5049301;28;20333;-78
2022/04/10 03:00:26;;;;;;;6.32;3.92;;;5.00;99.90;;;;;;5050583;28;20208;-78
2022/04/10 03:02:52;;;;;;;7.30;4.65;;;5.00;99.90;;;;;;5051697;28;20175;-78
2022/04/10 03:05:18;;;;;;;10.23;4.82;;;5.10;99.90;;;;;;5050681;28;20168;-78
2022/04/10 03:07:45;;;;;;;8.80;4.00;;;5.10;99.90;;;;;;5069449;28;20667;-78
2022/04/10 03:10:11;;;;;;;3.92;2.70;;;5.20;99.90;;;;;;5071918;28;20179;-78
2022/04/10 03:12:38;;;;;;;5.82;2.30;;;5.30;99.90;;;;;;5071202;28;20175;-78
2022/04/10 03:15:05;;;;;;;3.63;2.20;;;5.30;99.90;;;;;;5070911;28;20624;-78
2022/04/10 03:17:31;;;;;;;4.50;2.05;;;5.40;99.90;;;;;;5069584;28;20196;-78
2022/04/10 03:19:59;;;;;;;4.50;1.50;;;5.50;99.90;;;;;;5070340;28;20215;-78
2022/04/10 03:22:25;;;;;;;3.13;1.52;;;5.50;99.90;;;;;;5070561;28;20225;-78
2022/04/10 03:24:50;;;;;;;5.73;2.40;;;5.60;99.90;;;;;;5070178;28;20239;-78
2022/04/10 03:27:17;;;;;;;5.53;1.60;;;5.70;99.90;;;;;;5070024;28;20176;-78
2022/04/10 03:29:43;;;;;;;4.20;2.05;;;5.70;99.90;;;;;;5070210;28;20654;-78
2022/04/10 03:32:09;;;;;;;3.70;1.70;;;5.70;99.90;;;;;;5070400;28;20206;-78
2022/04/10 03:34:35;;;;;;;5.20;1.95;;;5.80;99.90;;;;;;5070116;28;20678;-78
2022/04/10 03:37:01;;;;;;;3.40;1.77;;;5.90;99.90;;;;;;5071499;28;20732;-78
2022/04/10 03:39:27;;;;;;;4.13;1.80;;;5.90;99.90;;;;;;5070003;28;20621;-78
2022/04/10 03:41:54;;;;;;;4.03;1.75;;;6.00;99.90;;;;;;5070012;28;20186;-78
2022/04/10 03:44:21;;;;;;;4.40;1.50;;;6.00;99.90;;;;;;5053513;28;20524;-78
2022/04/10 03:46:46;;;;;;;3.43;1.80;;;6.10;99.90;;;;;;5069991;28;20188;-78
2022/04/10 03:49:12;;;;;;;2.95;1.60;;;6.10;99.90;;;;;;5071137;28;20630;-78
2022/04/10 03:51:38;;;;;;;4.80;2.07;;;6.20;99.90;;;;;;5069971;28;20207;-78
2022/04/10 03:54:04;;;;;;;3.03;2.10;;;6.20;99.90;;;;;;5070028;28;20640;-78
2022/04/10 03:56:30;;;;;;;3.30;1.90;;;6.30;99.90;;;;;;5069820;28;20204;-78
2022/04/10 03:58:57;;;;;;;3.28;2.20;;;6.30;99.90;;;;;;5069554;28;20203;-78
2022/04/10 04:01:25;;;;;;;4.55;1.42;;;6.40;99.90;;;;;;5053473;28;20172;-78
2022/04/10 04:03:52;;;;;;;3.08;1.70;;;6.40;99.90;;;;;;5069990;28;20625;-78
2022/04/10 04:06:18;;;;;;;5.07;1.93;;;6.40;99.90;;;;;;5069997;28;20202;-78
2022/04/10 04:08:44;;;;;;;3.75;2.00;;;6.50;99.90;;;;;;5069532;28;20624;-78
2022/04/10 04:11:11;;;;;;;3.70;1.75;;;6.50;99.90;;;;;;5069780;28;20176;-78
2022/04/10 04:13:40;;;;;;;5.63;2.40;;;6.50;99.90;;;;;;5069982;28;20172;-78
2022/04/10 04:16:07;;;;;;;4.90;2.03;;;6.60;99.90;;;;;;5053078;28;20184;-78
2022/04/10 04:18:33;;;;;;;2.90;1.80;;;6.60;99.90;;;;;;5069604;28;20180;-78
2022/04/10 04:20:59;;;;;;;3.57;1.83;;;6.60;99.90;;;;;;5053069;28;20168;-78
2022/04/10 04:23:26;;;;;;;6.68;2.15;;;6.60;99.90;;;;;;5069900;28;20658;-78
2022/04/10 04:25:53;;;;;;;2.28;1.52;;;6.60;99.90;;;;;;5069700;28;20226;-78
2022/04/10 04:28:19;;;;;;;4.13;2.42;;;6.60;99.90;;;;;;5052965;28;20268;-78
2022/04/10 04:30:45;;;;;;;3.63;1.87;;;6.60;99.90;;;;;;5073850;28;20263;-78
2022/04/10 04:33:12;;;;;;;2.85;1.80;;;6.60;99.90;;;;;;5057687;28;20218;-78
2022/04/10 04:35:37;;;;;;;3.33;1.90;;;6.60;99.90;;;;;;5077124;28;20176;-78
2022/04/10 04:38:04;;;;;;;4.32;2.17;;;6.60;99.90;;;;;;5078512;28;20573;-78
2022/04/10 04:40:31;;;;;;;5.72;2.17;;;6.60;99.90;;;;;;5089573;28;20208;-78
2022/04/10 04:42:57;;;;;;;3.07;1.83;;;6.60;99.90;;;;;;5075533;28;20180;-78
2022/04/10 04:45:25;;;;;;;4.13;2.13;;;6.50;99.90;;;;;;5075349;28;20598;-78
2022/04/10 04:48:00;;;;;;;5.65;2.20;;;6.50;99.90;;;;;;5075294;28;20168;-78
2022/04/10 04:50:27;;;;;;;4.47;2.17;;;6.50;99.90;;;;;;5073545;28;20528;-78
2022/04/10 04:52:54;;;;;;;2.83;1.50;;;6.40;99.90;;;;;;5073630;28;20172;-78
2022/04/10 04:55:20;;;;;;;5.20;2.60;;;6.40;99.90;;;;;;5073419;28;20202;-77
2022/04/10 04:57:47;;;;;;;5.53;2.30;;;6.40;99.90;;;;;;5056573;28;20223;-78
2022/04/10 05:00:14;;;;;;;6.40;2.28;;;6.30;99.90;;;;;;5056530;28;20196;-78
2022/04/10 05:02:46;;;;;;;4.35;2.20;;;6.30;99.90;;;;;;5074645;28;20168;-78
2022/04/10 05:05:12;;;;;;;3.83;2.40;;;6.20;99.90;;;;;;5073555;28;20163;-78
2022/04/10 05:07:38;;;;;;;3.90;2.25;;;6.20;99.90;;;;;;5072797;28;20253;-78
2022/04/10 05:10:06;;;;;;;3.30;1.98;;;6.20;99.90;;;;;;5056381;28;20179;-78
2022/04/10 05:12:35;;;;;;;4.57;2.30;;;6.20;99.90;;;;;;5072961;28;20172;-78
2022/04/10 05:15:07;;;;;;;5.00;2.33;;;6.20;99.90;;;;;;5072855;28;20181;-78
2022/04/10 05:17:34;;;;;;;5.05;2.35;;;6.30;99.90;;;;;;5072264;28;20235;-78
2022/04/10 05:20:01;;;;;;;4.80;2.75;;;6.30;99.90;;;;;;5055849;28;20652;-78
2022/04/10 05:22:27;;;;;;;3.80;3.17;;;6.40;99.90;;;;;;5072505;28;20179;-78
2022/04/10 05:24:59;;;;;;;4.97;2.50;;;6.50;99.90;;;;;;5072350;28;20686;-79
2022/04/10 05:27:25;;;;;;;3.58;3.08;;;6.50;99.90;;;;;;5072119;28;20235;-78
2022/04/10 05:29:51;;;;;;;5.50;3.07;;;6.60;99.90;;;;;;5055690;28;20200;-78
2022/04/10 05:32:17;;;;;;;5.22;2.70;;;6.70;99.90;;;;;;5055587;28;21045;-78
2022/04/10 05:34:45;;;;;;;3.63;2.75;;;6.70;99.90;;;;;;5072479;28;20172;-78
2022/04/10 05:37:11;;;;;;;4.82;2.72;;;6.80;99.90;;;;;;5074095;28;20211;-78
2022/04/10 05:39:44;;;;;;;5.57;3.15;;;6.90;99.90;;;;;;5057474;28;20607;-79
2022/04/10 05:42:10;;;;;;;4.47;3.13;;;7.00;99.90;;;;;;5075229;28;20176;-78
2022/04/10 05:44:36;;;;;;;4.38;3.00;;;7.00;99.90;;;;;;5074398;28;20172;-78
2022/04/10 05:47:07;;;;;;;5.53;3.63;;;7.10;99.90;;;;;;5072540;28;20585;-78
2022/04/10 05:49:33;;;;;;;5.23;3.77;;;7.10;99.90;;;;;;5071844;28;20222;-78
2022/04/10 05:51:59;;;;;;;4.93;2.83;;;7.20;99.90;;;;;;5071556;28;20951;-78
2022/04/10 05:54:25;;;;;;;5.03;3.88;;;7.30;99.90;;;;;;5071669;28;20520;-79
2022/04/10 05:56:55;;;;;;;4.72;3.35;;;7.30;99.90;;;;;;5054996;28;20283;-78
2022/04/10 05:59:21;;;;;;;5.53;3.63;;;7.40;99.90;;;;;;5071376;28;20723;-78
2022/04/10 06:01:47;;;;;;;5.80;3.05;;;7.40;99.90;;;;;;5054868;28;20640;-78
2022/04/10 06:04:13;;;;;;;4.23;2.80;;;7.50;99.90;;;;;;5071446;28;20168;-78
2022/04/10 06:06:39;;;;;;;8.55;3.00;;;7.50;99.90;;;;;;5071455;28;20590;-79
2022/04/10 06:09:12;;;;;;;5.70;2.97;;;7.60;99.90;;;;;;5071164;28;20176;-78
2022/04/10 06:11:38;;;;;;;7.03;3.70;;;7.60;99.90;;;;;;5071326;28;20176;-78
2022/04/10 06:14:04;;;;;;;4.50;3.40;;;7.60;99.90;;;;;;5071547;28;20255;-78
2022/04/10 06:16:31;;;;;;;5.82;4.30;;;7.70;99.90;;;;;;5071172;28;20200;-78
2022/04/10 06:18:57;;;;;;;5.00;3.25;;;7.80;99.90;;;;;;5054334;28;20199;-78
2022/04/10 06:21:24;;;;;;;5.25;3.53;;;7.80;99.90;;;;;;5071125;28;20298;-78
2022/04/10 06:23:50;;;;;;;7.20;3.28;;;7.90;99.90;;;;;;5071421;28;20368;-78
2022/04/10 06:26:23;;;;;;;5.30;3.67;;;8.00;99.90;;;;;;5070985;28;20541;-78
2022/04/10 06:28:50;;;;;;;6.18;3.70;;;8.10;99.90;;;;;;5071034;28;20560;-78
2022/04/10 06:31:24;;;;;;;4.95;3.03;;;8.20;99.90;;;;;;5071016;28;20164;-78
2022/04/10 06:33:50;;;;;;;5.80;3.77;;;8.20;99.90;;;;;;5070971;28;20283;-78
2022/04/10 06:36:17;;;;;;;5.53;3.72;;;8.30;99.90;;;;;;5070960;28;20195;-78
2022/04/10 06:38:42;;;;;;;5.38;3.50;;;8.40;99.90;;;;;;5070702;28;20255;-79
2022/04/10 06:41:16;;;;;;;5.78;3.85;;;8.80;99.90;;;;;;5070862;28;20173;-78
2022/04/10 06:43:42;;;;;;;4.35;3.42;;;9.40;99.90;;;;;;5070705;28;20222;-79
2022/04/10 06:46:29;;;;;;;6.22;3.15;;;10.20;99.90;;;;;;5070794;28;20310;-78
2022/04/10 06:49:02;;;;;;;4.22;2.70;;;11.40;99.90;;;;;;5070660;28;20176;-79
2022/04/10 06:51:28;;;;;;;4.90;3.25;;;12.60;99.90;;;;;;5070516;28;20176;-79
2022/04/10 06:53:56;;;;;;;4.50;2.30;;;13.80;99.90;;;;;;5069874;28;20168;-79
2022/04/10 06:56:22;;;;;;;5.00;2.30;;;14.60;99.90;;;;;;5070580;28;20675;-79
2022/04/10 06:58:48;;;;;;;3.47;2.60;;;15.30;99.90;;;;;;5071564;28;20618;-79
2022/04/10 07:01:14;;;;;;;3.40;1.70;;;15.70;99.90;;;;;;5053638;28;20168;-79
2022/04/10 07:03:41;;;;;;;2.90;1.83;;;15.80;99.90;;;;;;5070679;28;20575;-78
2022/04/10 07:06:10;;;;;;;3.57;2.17;;;15.90;99.90;;;;;;5072870;28;20607;-79
2022/04/10 07:08:37;;;;;;;7.37;2.37;;;16.00;99.90;;;;;;5070446;28;20578;-79
2022/04/10 07:11:03;;;;;;;3.63;1.90;;;16.20;99.90;;;;;;5070317;28;20575;-79
2022/04/10 07:13:30;;;;;;;6.53;2.80;;;16.80;99.90;;;;;;5070642;28;20582;-79
2022/04/10 07:15:57;;;;;;;5.20;2.07;;;17.50;99.90;;;;;;5070535;28;20609;-79
2022/04/10 07:18:23;;;;;;;3.40;1.50;;;18.30;99.90;;;;;;5053470;28;20582;-79
2022/04/10 07:20:52;;;;;;;3.43;1.63;;;19.20;99.90;;;;;;5070150;28;20622;-79
2022/04/10 07:26:10;;;;;;;3.97;2.17;;;20.60;97.00;;;;;;5070328;28;21222;-79
2022/04/10 07:28:37;;;;;;;3.30;1.63;;;21.30;96.90;;;;;;5069814;28;20666;-79
2022/04/10 07:31:06;;;;;;;4.03;2.30;;;21.90;95.80;;;;;;5070246;28;21148;-80
2022/04/10 07:33:35;;;;;;;3.07;1.40;;;22.40;94.00;;;;;;5070330;28;20566;-80
2022/04/10 07:36:10;;;;;;;3.80;2.00;;;22.90;92.50;;;;;;5070003;28;20954;-80
2022/04/10 07:38:38;;;;;;;2.63;1.80;;;23.30;91.10;;;;;;5069786;28;20579;-80
2022/04/10 07:41:08;;;;;;;3.60;1.97;;;23.60;89.10;;;;;;5070095;28;20582;-80
2022/04/10 07:43:39;;;;;;;3.30;1.50;;;23.90;87.30;;;;;;5070120;28;20562;-78
2022/04/10 07:48:55;;;;;;;5.27;2.30;;;24.60;84.80;;;;;;5070218;28;20574;-78
2022/04/10 07:51:25;;;;;;;3.20;2.00;;;25.10;81.40;;;;;;5070530;28;20571;-78
2022/04/10 07:54:03;;;;;;;5.33;1.70;;;25.30;78.90;;;;;;5070427;28;20653;-79
2022/04/10 07:56:30;;;;;;;3.80;1.73;;;25.60;78.70;;;;;;5069930;28;20641;-78
2022/04/10 07:58:57;;;;;;;3.70;1.70;;;25.90;77.00;;;;;;5069858;28;20618;-79
2022/04/10 08:01:32;;;;;;;3.20;1.67;;;26.30;75.60;;;;;;5069960;28;20562;-79
2022/04/10 08:04:03;;;;;;;2.90;1.70;;;26.60;73.10;;;;;;5071301;28;21113;-79
2022/04/10 08:06:58;;;;;;;3.73;1.40;;;26.90;71.50;;;;;;5065707;28;20701;-79
2022/04/10 08:09:24;;;;;;;3.27;1.60;;;27.20;69.40;;;;;;5074504;28;21010;-79
2022/04/10 08:11:50;;;;;;;2.57;1.20;;;27.10;66.60;;;;;;5074926;28;20175;-79
2022/04/10 08:14:16;;;;;;;3.33;1.33;;;27.20;66.00;;;;;;5073766;28;20196;-79
2022/04/10 08:16:42;;;;;;;3.90;1.50;;;27.40;64.60;;;;;;5074752;28;20965;-78
2022/04/10 08:19:08;;;;;;;3.60;1.70;;;27.40;62.30;;;;;;5074614;28;20750;-78
2022/04/10 08:21:33;;;;;;;2.47;1.20;;;27.30;59.50;;;;;;5074611;28;20168;-78
2022/04/10 08:23:59;;;;;;;4.00;2.07;;;27.20;58.70;;;;;;5074584;28;20194;-78
2022/04/10 08:26:25;;;;;;;3.97;1.30;;;27.20;58.60;;;;;;5074520;28;20200;-78
2022/04/10 08:28:51;;;;;;;3.30;1.80;;;27.20;58.70;;;;;;5073960;28;20175;-78
2022/04/10 08:31:16;;;;;;;5.87;1.80;;;27.30;57.20;;;;;;5074369;28;20577;-78
2022/04/10 08:33:42;;;;;;;3.13;1.20;;;27.00;55.90;;;;;;5062691;28;20246;-78
2022/04/10 08:36:08;;;;;;;3.10;1.90;;;26.20;53.80;;;;;;5075027;28;20553;-78
2022/04/10 08:38:34;;;;;;;5.50;2.10;;;25.40;53.20;;;;;;5074172;28;20566;-78
2022/04/10 08:41:01;;;;;;;3.70;1.60;;;24.60;53.40;;;;;;5072988;28;20563;-78
2022/04/10 08:43:28;;;;;;;4.00;1.70;;;24.00;53.10;;;;;;5074387;28;20562;-78
2022/04/10 08:45:58;;;;;;;3.10;1.67;;;23.80;53.80;;;;;;5072993;28;20594;-78
2022/04/10 08:48:27;;;;;;;2.87;1.83;;;23.50;53.40;;;;;;5074132;28;20555;-78
2022/04/10 08:50:55;;;;;;;4.33;1.83;;;23.00;53.60;;;;;;5072851;28;20586;-78
2022/04/10 08:53:25;;;;;;;4.90;1.93;;;22.90;54.60;;;;;;5074104;28;20573;-78
2022/04/10 08:55:52;;;;;;;3.90;1.47;;;23.20;55.70;;;;;;5073945;28;20663;-79
2022/04/10 08:58:21;;;;;;;6.20;1.40;;;23.70;56.20;;;;;;5074197;28;20570;-79
2022/04/10 09:00:47;;;;;;;2.87;1.20;;;24.00;56.00;;;;;;5069974;28;20563;-78
2022/04/10 09:03:13;;;;;;;4.37;1.10;;;24.20;55.80;;;;;;5072344;28;20574;-78
2022/04/10 09:05:40;;;;;;;2.50;1.30;;;24.60;55.30;;;;;;5073988;28;20152;-78
2022/04/10 09:08:10;;;;;;;4.07;1.10;;;24.90;54.50;;;;;;5073602;28;20609;-78
2022/04/10 09:10:52;;;;;;;2.67;0.90;;;25.10;54.00;;;;;;5073608;28;20917;-78
2022/04/10 09:13:33;;;;;;;4.27;1.00;;;25.50;53.90;;;;;;5073576;28;20924;-79
2022/04/10 09:16:09;;;;;;;6.50;1.10;;;25.30;51.70;;;;;;5072568;28;20681;-78
2022/04/10 09:18:46;;;;;;;2.50;1.00;;;25.00;52.10;;;;;;5072023;28;20569;-78
2022/04/10 09:21:12;;;;;;;3.70;1.10;;;25.20;52.50;;;;;;5073592;28;20567;-78
2022/04/10 09:23:38;;;;;;;2.27;1.03;;;25.20;51.70;;;;;;5073494;28;20570;-78
2022/04/10 09:26:03;;;;;;;3.10;1.20;;;25.00;51.30;;;;;;5073335;28;20617;-78
2022/04/10 09:28:49;;;;;;;3.40;1.83;;;24.90;51.40;;;;;;5073357;28;20515;-79
2022/04/10 09:31:30;;;;;;;2.53;0.97;;;24.50;49.00;;;;;;5072073;28;20623;-78
2022/04/10 09:33:57;;;;;;;2.77;1.10;;;23.70;48.10;;;;;;5073358;28;20570;-78
2022/04/10 09:36:29;;;;;;;3.70;1.57;;;22.80;48.00;;;;;;5073097;28;20617;-78
2022/04/10 09:38:54;;;;;;;3.30;1.60;;;22.30;47.90;;;;;;5071470;28;20618;-78
2022/04/10 09:41:21;;;;;;;2.73;1.50;;;21.70;48.40;;;;;;5073159;28;20617;-78
2022/04/10 09:43:46;;;;;;;3.40;1.57;;;21.70;50.10;;;;;;5073124;28;20563;-78
2022/04/10 09:46:15;;;;;;;3.00;1.37;;;21.60;49.70;;;;;;5072677;28;20180;-78
2022/04/10 09:48:41;;;;;;;3.60;2.00;;;21.80;50.60;;;;;;5071285;28;20179;-79
2022/04/10 09:51:09;;;;;;;4.33;1.67;;;22.10;51.80;;;;;;5072711;28;20567;-78
2022/04/10 09:53:35;;;;;;;2.80;1.50;;;22.20;51.40;;;;;;5072659;28;20183;-79
2022/04/10 09:56:03;;;;;;;2.27;1.43;;;21.80;49.00;;;;;;5071061;28;20977;-78
2022/04/10 09:58:30;;;;;;;5.40;2.43;;;21.50;49.10;;;;;;5072716;28;20168;-78
2022/04/10 10:00:57;;;;;;;2.53;1.50;;;21.60;50.00;;;;;;5072654;28;20984;-78
2022/04/10 10:03:24;;;;;;;3.50;1.40;;;21.50;49.90;;;;;;5072987;28;20562;-79
2022/04/10 10:05:52;;;;;;;3.17;1.10;;;21.70;50.90;;;;;;5072693;28;20567;-79
2022/04/10 10:08:18;;;;;;;6.27;1.63;;;21.70;49.80;;;;;;5072560;28;20911;-78
2022/04/10 10:10:44;;;;;;;5.60;3.47;;;21.40;49.00;;;;;;5072600;28;20978;-78
2022/04/10 10:13:12;;;;;;;5.20;2.60;;;21.30;48.80;;;;;;5072728;28;20563;-79
2022/04/10 10:15:39;;;;;;;3.53;2.30;;;21.10;48.80;;;;;;5072537;28;20602;-79
2022/04/10 10:18:07;;;;;;;3.97;1.73;;;21.00;49.10;;;;;;5071216;28;20598;-79
2022/04/10 10:20:34;;;;;;;3.77;1.80;;;21.30;50.60;;;;;;5072355;28;20614;-79
2022/04/10 10:23:07;;;;;;;5.77;2.57;;;21.70;50.50;;;;;;5071316;28;20577;-79
2022/04/10 10:26:05;;;;;;;5.03;3.10;;;21.80;49.50;;;;;;5070858;28;20578;-79
2022/04/10 10:28:42;;;;;;;3.53;1.63;;;21.50;48.70;;;;;;5047159;28;20636;-79
2022/04/10 10:31:35;;;;;;;4.10;1.50;;;21.10;48.10;;;;;;5072299;28;20574;-79
2022/04/10 10:34:09;;;;;;;4.07;1.33;;;20.60;47.70;;;;;;5071087;28;20628;-79
2022/04/10 10:36:36;;;;;;;3.47;1.10;;;20.00;47.30;;;;;;5072267;28;20594;-79
2022/04/10 10:39:04;;;;;;;2.60;1.73;;;19.50;47.60;;;;;;5071988;28;20618;-79
2022/04/10 10:41:32;;;;;;;2.37;1.37;;;19.10;47.60;;;;;;5070653;28;20575;-79
2022/04/10 10:44:13;;;;;;;2.73;1.00;;;18.70;47.60;;;;;;5072274;28;20671;-79
2022/04/10 10:47:02;;;;;;;4.13;1.07;;;18.30;47.40;;;;;;5071863;28;20615;-79
2022/04/10 10:49:49;;;;;;;3.33;1.40;;;17.70;47.40;;;;;;5070486;28;20643;-79
2022/04/10 10:52:16;;;;;;;3.93;1.10;;;17.10;47.50;;;;;;5071385;28;20594;-79
2022/04/10 10:54:51;;;;;;;4.50;1.10;;;16.60;48.10;;;;;;5072019;28;20694;-79
2022/04/10 10:57:24;;;;;;;3.00;1.10;;;16.20;49.00;;;;;;5070641;28;20653;-79
2022/04/10 11:00:12;;;;;;;2.53;2.00;;;16.00;49.60;;;;;;5071767;28;20991;-79
2022/04/10 11:02:39;;;;;;;3.37;1.17;;;16.00;50.90;;;;;;5061537;28;20620;-79
2022/04/10 11:05:06;;;;;;;2.67;1.20;;;16.30;52.30;;;;;;5072034;28;20665;-79
2022/04/10 11:07:38;;;;;;;4.00;1.33;;;16.60;52.80;;;;;;5071723;28;20590;-79
2022/04/10 11:10:07;;;;;;;3.40;1.07;;;17.10;53.10;;;;;;5053870;28;20969;-79
2022/04/10 11:12:46;;;;;;;2.20;0.90;;;17.50;54.00;;;;;;5070698;28;20601;-80
2022/04/10 11:15:20;;;;;;;1.93;1.30;;;18.10;54.80;;;;;;5071852;28;20682;-79
2022/04/10 11:17:46;;;;;;;3.50;1.60;;;18.60;54.10;;;;;;5070376;28;20602;-79
2022/04/10 11:20:14;;;;;;;2.83;1.10;;;19.00;53.80;;;;;;5071574;28;21173;-79
2022/04/10 11:22:47;;;;;;;2.63;1.20;;;19.10;52.50;;;;;;5071802;28;20670;-79
2022/04/10 11:25:16;;;;;;;2.47;1.43;;;19.10;51.30;;;;;;5071542;28;21007;-78
2022/04/10 11:27:54;;;;;;;5.20;3.07;;;19.00;51.30;;;;;;5071127;28;20595;-79
2022/04/10 11:30:31;;;;;;;2.60;1.60;;;18.80;50.30;;;;;;5070384;28;20699;-79
2022/04/10 11:32:57;;;;;;;2.40;1.20;;;18.50;49.50;;;;;;5071530;28;20573;-78
2022/04/10 11:35:37;;;;;;;5.00;1.10;;;18.20;49.20;;;;;;5071534;28;20989;-79
2022/04/10 11:38:15;;;;;;;6.17;3.00;;;17.90;48.80;;;;;;5071085;28;20594;-78
2022/04/10 11:40:51;;;;;;;5.23;1.90;;;17.70;49.20;;;;;;5074499;28;20621;-78
2022/04/10 11:43:19;;;;;;;3.23;1.67;;;17.60;49.40;;;;;;5057743;28;20596;-78
2022/04/10 11:45:48;;;;;;;2.30;0.90;;;17.60;50.70;;;;;;5076994;28;20565;-74
2022/04/10 11:48:14;;;;;;;2.27;0.93;;;17.80;50.70;;;;;;5073660;28;20575;-74
2022/04/10 11:50:40;;;;;;;1.73;0.80;;;17.90;50.90;;;;;;5073686;28;20636;-73
2022/04/10 11:53:11;;;;;;;2.07;1.00;;;18.10;51.20;;;;;;5075041;28;20665;-74
2022/04/10 11:55:42;;;;;;;3.60;1.10;;;18.30;50.40;;;;;;5074910;28;20586;-75
2022/04/10 11:58:15;;;;;;;2.60;0.80;;;18.50;50.90;;;;;;5074969;28;20574;-74
2022/04/10 12:01:01;;;;;;;2.33;0.80;;;18.80;51.40;;;;;;5056744;28;20622;-75
2022/04/10 12:03:33;;;;;;;2.27;1.07;;;19.10;51.40;;;;;;5073816;28;20599;-75
2022/04/10 12:05:59;;;;;;;1.53;0.87;;;19.40;51.90;;;;;;5074694;28;20582;-74
2022/04/10 12:08:25;;;;;;;3.43;1.47;;;19.60;52.00;;;;;;5074486;28;20573;-75
2022/04/10 12:10:56;;;;;;;3.10;1.27;;;19.80;51.20;;;;;;5074629;28;20566;-75
2022/04/10 12:13:28;;;;;;;2.30;1.00;;;19.90;51.20;;;;;;5074712;28;20899;-75
2022/04/10 12:16:16;;;;;;;2.73;0.90;;;20.00;51.70;;;;;;5073193;28;20602;-76
2022/04/10 12:18:53;;;;;;;3.40;1.00;;;20.20;51.10;;;;;;5074375;28;20582;-75
2022/04/10 12:21:20;;;;;;;3.77;0.80;;;20.30;51.60;;;;;;5074599;28;20932;-76
2022/04/10 12:23:56;;;;;;;2.17;1.00;;;20.40;51.10;;;;;;5073017;28;20574;-75
2022/04/10 12:26:22;;;;;;;2.60;1.23;;;20.40;50.70;;;;;;5074570;28;20697;-75
2022/04/10 12:28:48;;;;;;;2.60;1.00;;;20.40;50.50;;;;;;5074417;28;21141;-76
2022/04/10 12:31:13;;;;;;;3.27;0.80;;;20.20;48.90;;;;;;5073050;28;20207;-75
2022/04/10 12:33:40;;;;;;;2.63;1.33;;;20.10;49.60;;;;;;5073448;28;20172;-75
2022/04/10 12:36:17;;;;;;;2.37;0.90;;;19.90;48.60;;;;;;5075262;28;20241;-75
2022/04/10 12:38:43;;;;;;;2.83;1.30;;;19.60;48.20;;;;;;5074337;28;20615;-75
2022/04/10 12:41:08;;;;;;;2.30;1.10;;;19.40;48.60;;;;;;5074153;28;20657;-75
2022/04/10 12:43:34;;;;;;;2.33;1.10;;;19.30;48.50;;;;;;5074192;28;20247;-75
2022/04/10 12:46:13;;;;;;;2.80;1.00;;;19.20;49.00;;;;;;5074147;28;20177;-76
2022/04/10 12:48:39;;;;;;;2.03;1.03;;;19.10;48.90;;;;;;5073828;28;20196;-75
2022/04/10 12:51:07;;;;;;;2.93;1.63;;;19.20;49.60;;;;;;5072461;28;20581;-75
2022/04/10 12:53:33;;;;;;;2.70;1.50;;;19.10;49.00;;;;;;5073904;28;20571;-75
2022/04/10 12:56:00;;;;;;;3.50;1.83;;;18.90;48.60;;;;;;5055690;28;21228;-75
2022/04/10 12:58:29;;;;;;;1.90;0.97;;;18.80;48.30;;;;;;5073686;28;20571;-75
2022/04/10 13:00:56;;;;;;;6.00;2.10;;;18.60;48.20;;;;;;5073657;28;20655;-75
2022/04/10 13:03:29;;;;;;;3.23;1.87;;;18.40;47.90;;;;;;5074426;28;20584;-75
2022/04/10 13:06:04;;;;;;;10.50;7.40;;;18.20;47.50;;;;;;5072754;28;20629;-74
2022/04/10 13:08:37;;;;;;;11.07;8.17;;;18.00;47.40;;;;;;5072669;28;20670;-75